sensor_id;sensor_type;location;lat;lon;timestamp;P1;durP1;ratioP1;P2;durP2;ratioP2
22363;SDS011;11349;53.412;-1.328;2023-10-09T00:00:24;9.48;;;4.97;;
22363;SDS011;11349;53.412;-1.328;2023-10-09T00:03:05;11.57;;;5.70;;
22363;SDS011;11349;53.412;-1.328;2023-10-09T00:05:31;9.95;;;5.60;;
22363;SDS011;11349;53.412;-1.328;2023-10-09T00:08:19;10.43;;;5.38;;
22363;SDS011;11349;53.412;-1.328;2023-10-09T00:10:55;10.52;;;4.82;;
22363;SDS011;11349;53.412;-1.328;2023-10-09T00:13:25;9.85;;;4.93;;
22363;SDS011;11349;53.412;-1.328;2023-10-09T00:15:58;8.00;;;4.68;;
22363;SDS011;11349;53.412;-1.328;2023-10-09T00:18:38;10.25;;;4.55;;
22363;SDS011;11349;53.412;-1.328;2023-10-09T00:21:04;10.40;;;4.55;;
22363;SDS011;11349;53.412;-1.328;2023-10-09T00:23:37;7.47;;;4.32;;
22363;SDS011;11349;53.412;-1.328;2023-10-09T00:26:03;9.27;;;4.75;;
22363;SDS011;11349;53.412;-1.328;2023-10-09T00:28:35;10.95;;;5.70;;
22363;SDS011;11349;53.412;-1.328;2023-10-09T00:31:05;8.80;;;5.00;;
22363;SDS011;11349;53.412;-1.328;2023-10-09T00:33:33;12.20;;;5.32;;
22363;SDS011;11349;53.412;-1.328;2023-10-09T00:36:03;14.82;;;6.20;;
22363;SDS011;11349;53.412;-1.328;2023-10-09T00:38:35;11.43;;;5.57;;
22363;SDS011;11349;53.412;-1.328;2023-10-09T00:41:05;8.75;;;4.90;;
22363;SDS011;11349;53.412;-1.328;2023-10-09T00:43:33;9.40;;;4.88;;
22363;SDS011;11349;53.412;-1.328;2023-10-09T00:46:02;7.95;;;5.05;;
22363;SDS011;11349;53.412;-1.328;2023-10-09T00:48:59;12.05;;;5.35;;
22363;SDS011;11349;53.412;-1.328;2023-10-09T00:51:28;8.93;;;5.05;;
22363;SDS011;11349;53.412;-1.328;2023-10-09T00:54:01;11.90;;;5.28;;
22363;SDS011;11349;53.412;-1.328;2023-10-09T00:56:42;10.50;;;5.25;;
22363;SDS011;11349;53.412;-1.328;2023-10-09T00:59:10;10.60;;;5.45;;
22363;SDS011;11349;53.412;-1.328;2023-10-09T01:01:41;12.80;;;5.88;;
22363;SDS011;11349;53.412;-1.328;2023-10-09T01:04:21;9.88;;;4.90;;
22363;SDS011;11349;53.412;-1.328;2023-10-09T01:06:51;12.13;;;5.70;;
22363;SDS011;11349;53.412;-1.328;2023-10-09T01:09:55;11.73;;;6.05;;
22363;SDS011;11349;53.412;-1.328;2023-10-09T01:12:21;9.32;;;5.13;;
22363;SDS011;11349;53.412;-1.328;2023-10-09T01:14:46;13.60;;;5.13;;
22363;SDS011;11349;53.412;-1.328;2023-10-09T01:17:20;11.57;;;5.93;;
22363;SDS011;11349;53.412;-1.328;2023-10-09T01:20:01;12.60;;;6.55;;
22363;SDS011;11349;53.412;-1.328;2023-10-09T01:22:29;13.85;;;5.60;;
22363;SDS011;11349;53.412;-1.328;2023-10-09T01:24:55;10.85;;;5.78;;
22363;SDS011;11349;53.412;-1.328;2023-10-09T01:27:21;13.65;;;5.93;;
22363;SDS011;11349;53.412;-1.328;2023-10-09T01:29:50;13.98;;;5.07;;
22363;SDS011;11349;53.412;-1.328;2023-10-09T01:32:17;9.50;;;4.80;;
22363;SDS011;11349;53.412;-1.328;2023-10-09T01:34:44;9.50;;;4.05;;
22363;SDS011;11349;53.412;-1.328;2023-10-09T01:37:17;9.15;;;4.95;;
22363;SDS011;11349;53.412;-1.328;2023-10-09T01:39:48;7.95;;;4.18;;
22363;SDS011;11349;53.412;-1.328;2023-10-09T01:42:16;7.43;;;4.07;;
22363;SDS011;11349;53.412;-1.328;2023-10-09T01:44:55;9.85;;;4.28;;
22363;SDS011;11349;53.412;-1.328;2023-10-09T01:47:23;9.23;;;4.45;;
22363;SDS011;11349;53.412;-1.328;2023-10-09T01:49:51;8.90;;;4.68;;
22363;SDS011;11349;53.412;-1.328;2023-10-09T01:52:18;9.77;;;5.28;;
22363;SDS011;11349;53.412;-1.328;2023-10-09T01:54:45;10.10;;;4.60;;
22363;SDS011;11349;53.412;-1.328;2023-10-09T01:57:15;15.27;;;5.15;;
22363;SDS011;11349;53.412;-1.328;2023-10-09T01:59:47;6.22;;;3.67;;
22363;SDS011;11349;53.412;-1.328;2023-10-09T02:02:18;10.25;;;4.38;;
22363;SDS011;11349;53.412;-1.328;2023-10-09T02:04:55;14.10;;;4.45;;
22363;SDS011;11349;53.412;-1.328;2023-10-09T02:07:38;11.35;;;4.45;;
22363;SDS011;11349;53.412;-1.328;2023-10-09T02:10:10;10.35;;;4.95;;
22363;SDS011;11349;53.412;-1.328;2023-10-09T02:12:53;7.35;;;4.45;;
22363;SDS011;11349;53.412;-1.328;2023-10-09T02:15:27;7.22;;;4.15;;
22363;SDS011;11349;53.412;-1.328;2023-10-09T02:18:10;10.05;;;4.63;;
22363;SDS011;11349;53.412;-1.328;2023-10-09T02:20:49;10.02;;;4.25;;
22363;SDS011;11349;53.412;-1.328;2023-10-09T02:23:28;9.10;;;4.20;;
22363;SDS011;11349;53.412;-1.328;2023-10-09T02:26:10;14.55;;;5.53;;
22363;SDS011;11349;53.412;-1.328;2023-10-09T02:29:03;9.07;;;4.47;;
22363;SDS011;11349;53.412;-1.328;2023-10-09T02:31:34;9.55;;;4.45;;
22363;SDS011;11349;53.412;-1.328;2023-10-09T02:34:05;10.85;;;4.90;;
22363;SDS011;11349;53.412;-1.328;2023-10-09T02:36:33;10.05;;;4.88;;
22363;SDS011;11349;53.412;-1.328;2023-10-09T02:39:09;11.48;;;5.00;;
22363;SDS011;11349;53.412;-1.328;2023-10-09T02:41:55;9.00;;;4.72;;
22363;SDS011;11349;53.412;-1.328;2023-10-09T02:44:44;9.35;;;4.43;;
22363;SDS011;11349;53.412;-1.328;2023-10-09T02:47:16;9.93;;;4.57;;
22363;SDS011;11349;53.412;-1.328;2023-10-09T02:49:46;9.88;;;4.00;;
22363;SDS011;11349;53.412;-1.328;2023-10-09T02:52:15;8.30;;;4.13;;
22363;SDS011;11349;53.412;-1.328;2023-10-09T02:54:49;8.32;;;4.43;;
22363;SDS011;11349;53.412;-1.328;2023-10-09T02:57:24;12.98;;;4.78;;
22363;SDS011;11349;53.412;-1.328;2023-10-09T03:00:03;10.07;;;4.72;;
22363;SDS011;11349;53.412;-1.328;2023-10-09T03:02:34;9.52;;;5.00;;
22363;SDS011;11349;53.412;-1.328;2023-10-09T03:05:05;11.32;;;5.28;;
22363;SDS011;11349;53.412;-1.328;2023-10-09T03:07:36;9.88;;;4.63;;
22363;SDS011;11349;53.412;-1.328;2023-10-09T03:10:04;10.73;;;5.00;;
22363;SDS011;11349;53.412;-1.328;2023-10-09T03:12:34;10.50;;;4.10;;
22363;SDS011;11349;53.412;-1.328;2023-10-09T03:15:00;12.65;;;4.88;;
22363;SDS011;11349;53.412;-1.328;2023-10-09T03:17:27;11.55;;;4.50;;
22363;SDS011;11349;53.412;-1.328;2023-10-09T03:19:53;7.35;;;4.50;;
22363;SDS011;11349;53.412;-1.328;2023-10-09T03:22:19;12.07;;;4.85;;
22363;SDS011;11349;53.412;-1.328;2023-10-09T03:24:45;9.77;;;5.18;;
22363;SDS011;11349;53.412;-1.328;2023-10-09T03:27:11;11.05;;;5.20;;
22363;SDS011;11349;53.412;-1.328;2023-10-09T03:29:39;10.38;;;4.78;;
22363;SDS011;11349;53.412;-1.328;2023-10-09T03:32:10;11.32;;;5.35;;
22363;SDS011;11349;53.412;-1.328;2023-10-09T03:34:36;12.38;;;5.03;;
22363;SDS011;11349;53.412;-1.328;2023-10-09T03:37:03;10.82;;;4.60;;
22363;SDS011;11349;53.412;-1.328;2023-10-09T03:39:30;10.00;;;4.80;;
22363;SDS011;11349;53.412;-1.328;2023-10-09T03:42:12;8.48;;;4.75;;
22363;SDS011;11349;53.412;-1.328;2023-10-09T03:44:44;9.75;;;4.80;;
22363;SDS011;11349;53.412;-1.328;2023-10-09T03:47:17;8.25;;;4.55;;
22363;SDS011;11349;53.412;-1.328;2023-10-09T03:49:47;10.80;;;4.80;;
22363;SDS011;11349;53.412;-1.328;2023-10-09T03:52:16;11.07;;;5.38;;
22363;SDS011;11349;53.412;-1.328;2023-10-09T03:54:43;8.43;;;4.97;;
22363;SDS011;11349;53.412;-1.328;2023-10-09T03:57:11;11.55;;;5.00;;
22363;SDS011;11349;53.412;-1.328;2023-10-09T03:59:45;7.85;;;4.22;;
22363;SDS011;11349;53.412;-1.328;2023-10-09T04:02:12;10.70;;;4.55;;
22363;SDS011;11349;53.412;-1.328;2023-10-09T04:04:41;11.23;;;5.20;;
22363;SDS011;11349;53.412;-1.328;2023-10-09T04:07:13;9.82;;;4.80;;
22363;SDS011;11349;53.412;-1.328;2023-10-09T04:09:41;11.55;;;5.15;;
22363;SDS011;11349;53.412;-1.328;2023-10-09T04:12:10;10.23;;;4.43;;
22363;SDS011;11349;53.412;-1.328;2023-10-09T04:14:38;10.43;;;4.97;;
22363;SDS011;11349;53.412;-1.328;2023-10-09T04:17:23;8.75;;;4.07;;
22363;SDS011;11349;53.412;-1.328;2023-10-09T04:19:58;9.75;;;5.10;;
22363;SDS011;11349;53.412;-1.328;2023-10-09T04:22:42;8.73;;;5.25;;
22363;SDS011;11349;53.412;-1.328;2023-10-09T04:25:24;11.82;;;5.78;;
22363;SDS011;11349;53.412;-1.328;2023-10-09T04:28:06;11.10;;;5.15;;
22363;SDS011;11349;53.412;-1.328;2023-10-09T04:30:47;9.50;;;5.25;;
22363;SDS011;11349;53.412;-1.328;2023-10-09T04:33:21;9.10;;;4.72;;
22363;SDS011;11349;53.412;-1.328;2023-10-09T04:36:03;9.18;;;4.88;;
22363;SDS011;11349;53.412;-1.328;2023-10-09T04:38:42;9.00;;;5.22;;
22363;SDS011;11349;53.412;-1.328;2023-10-09T04:41:20;10.00;;;5.00;;
22363;SDS011;11349;53.412;-1.328;2023-10-09T04:43:56;8.38;;;5.15;;
22363;SDS011;11349;53.412;-1.328;2023-10-09T04:46:41;9.02;;;4.97;;
22363;SDS011;11349;53.412;-1.328;2023-10-09T04:49:31;10.55;;;5.15;;
22363;SDS011;11349;53.412;-1.328;2023-10-09T04:52:18;11.60;;;5.20;;
22363;SDS011;11349;53.412;-1.328;2023-10-09T04:54:59;11.68;;;5.50;;
22363;SDS011;11349;53.412;-1.328;2023-10-09T04:57:40;9.35;;;5.32;;
22363;SDS011;11349;53.412;-1.328;2023-10-09T05:00:09;11.38;;;5.75;;
22363;SDS011;11349;53.412;-1.328;2023-10-09T05:02:51;9.13;;;5.15;;
22363;SDS011;11349;53.412;-1.328;2023-10-09T05:05:21;9.48;;;5.18;;
22363;SDS011;11349;53.412;-1.328;2023-10-09T05:13:32;10.32;;;5.55;;
22363;SDS011;11349;53.412;-1.328;2023-10-09T05:16:21;11.98;;;5.90;;
22363;SDS011;11349;53.412;-1.328;2023-10-09T05:18:47;10.38;;;5.75;;
22363;SDS011;11349;53.412;-1.328;2023-10-09T05:21:52;12.80;;;5.18;;
22363;SDS011;11349;53.412;-1.328;2023-10-09T05:24:23;13.18;;;5.55;;
22363;SDS011;11349;53.412;-1.328;2023-10-09T05:26:51;11.65;;;4.85;;
22363;SDS011;11349;53.412;-1.328;2023-10-09T05:29:18;9.30;;;4.68;;
22363;SDS011;11349;53.412;-1.328;2023-10-09T05:31:58;8.98;;;4.32;;
22363;SDS011;11349;53.412;-1.328;2023-10-09T05:34:41;12.07;;;5.57;;
22363;SDS011;11349;53.412;-1.328;2023-10-09T05:37:26;10.85;;;4.63;;
22363;SDS011;11349;53.412;-1.328;2023-10-09T05:40:02;10.80;;;4.60;;
22363;SDS011;11349;53.412;-1.328;2023-10-09T05:42:41;9.88;;;4.95;;
22363;SDS011;11349;53.412;-1.328;2023-10-09T05:47:54;14.48;;;5.80;;
22363;SDS011;11349;53.412;-1.328;2023-10-09T05:50:31;9.60;;;4.57;;
22363;SDS011;11349;53.412;-1.328;2023-10-09T05:53:02;12.15;;;5.28;;
22363;SDS011;11349;53.412;-1.328;2023-10-09T05:55:42;7.85;;;4.50;;
22363;SDS011;11349;53.412;-1.328;2023-10-09T05:58:26;10.98;;;4.95;;
22363;SDS011;11349;53.412;-1.328;2023-10-09T06:01:10;10.95;;;5.07;;
22363;SDS011;11349;53.412;-1.328;2023-10-09T06:03:54;12.20;;;5.38;;
22363;SDS011;11349;53.412;-1.328;2023-10-09T06:06:22;10.00;;;5.47;;
22363;SDS011;11349;53.412;-1.328;2023-10-09T06:09:06;9.43;;;4.93;;
22363;SDS011;11349;53.412;-1.328;2023-10-09T06:11:55;9.23;;;4.22;;
22363;SDS011;11349;53.412;-1.328;2023-10-09T06:14:41;11.70;;;5.97;;
22363;SDS011;11349;53.412;-1.328;2023-10-09T06:17:23;13.82;;;5.35;;
22363;SDS011;11349;53.412;-1.328;2023-10-09T06:19:49;10.38;;;4.60;;
22363;SDS011;11349;53.412;-1.328;2023-10-09T06:22:23;11.73;;;5.68;;
22363;SDS011;11349;53.412;-1.328;2023-10-09T06:24:49;15.00;;;5.38;;
22363;SDS011;11349;53.412;-1.328;2023-10-09T06:27:18;9.43;;;4.97;;
22363;SDS011;11349;53.412;-1.328;2023-10-09T06:29:56;10.45;;;4.93;;
22363;SDS011;11349;53.412;-1.328;2023-10-09T06:32:41;16.90;;;5.00;;
22363;SDS011;11349;53.412;-1.328;2023-10-09T06:35:23;10.02;;;5.47;;
22363;SDS011;11349;53.412;-1.328;2023-10-09T06:38:12;11.60;;;5.60;;
22363;SDS011;11349;53.412;-1.328;2023-10-09T06:40:47;10.93;;;5.07;;
22363;SDS011;11349;53.412;-1.328;2023-10-09T06:43:17;10.60;;;5.00;;
22363;SDS011;11349;53.412;-1.328;2023-10-09T06:45:46;11.10;;;4.43;;
22363;SDS011;11349;53.412;-1.328;2023-10-09T06:48:19;10.93;;;5.28;;
22363;SDS011;11349;53.412;-1.328;2023-10-09T06:53:51;11.75;;;5.50;;
22363;SDS011;11349;53.412;-1.328;2023-10-09T06:56:20;10.75;;;4.90;;
22363;SDS011;11349;53.412;-1.328;2023-10-09T06:59:05;11.70;;;5.85;;
22363;SDS011;11349;53.412;-1.328;2023-10-09T07:01:40;11.55;;;5.82;;
22363;SDS011;11349;53.412;-1.328;2023-10-09T07:04:11;10.50;;;5.47;;
22363;SDS011;11349;53.412;-1.328;2023-10-09T07:06:45;12.13;;;6.82;;
22363;SDS011;11349;53.412;-1.328;2023-10-09T07:09:11;10.75;;;5.70;;
22363;SDS011;11349;53.412;-1.328;2023-10-09T07:11:38;11.27;;;5.63;;
22363;SDS011;11349;53.412;-1.328;2023-10-09T07:14:09;9.60;;;5.03;;
22363;SDS011;11349;53.412;-1.328;2023-10-09T07:16:57;12.90;;;6.20;;
22363;SDS011;11349;53.412;-1.328;2023-10-09T07:19:28;18.48;;;7.10;;
22363;SDS011;11349;53.412;-1.328;2023-10-09T07:22:21;10.63;;;5.40;;
22363;SDS011;11349;53.412;-1.328;2023-10-09T07:24:48;10.50;;;5.20;;
22363;SDS011;11349;53.412;-1.328;2023-10-09T07:27:31;9.80;;;5.50;;
22363;SDS011;11349;53.412;-1.328;2023-10-09T07:30:30;11.43;;;4.70;;
22363;SDS011;11349;53.412;-1.328;2023-10-09T07:35:35;14.02;;;5.95;;
22363;SDS011;11349;53.412;-1.328;2023-10-09T07:38:23;11.98;;;4.88;;
22363;SDS011;11349;53.412;-1.328;2023-10-09T07:41:16;13.15;;;5.93;;
22363;SDS011;11349;53.412;-1.328;2023-10-09T07:43:42;11.30;;;5.32;;
22363;SDS011;11349;53.412;-1.328;2023-10-09T07:46:09;16.42;;;5.75;;
22363;SDS011;11349;53.412;-1.328;2023-10-09T07:48:55;11.52;;;6.45;;
22363;SDS011;11349;53.412;-1.328;2023-10-09T07:51:26;17.25;;;6.47;;
22363;SDS011;11349;53.412;-1.328;2023-10-09T07:53:58;13.70;;;5.30;;
22363;SDS011;11349;53.412;-1.328;2023-10-09T07:56:37;15.30;;;6.10;;
22363;SDS011;11349;53.412;-1.328;2023-10-09T07:59:08;13.00;;;5.97;;
22363;SDS011;11349;53.412;-1.328;2023-10-09T08:01:40;15.73;;;5.85;;
22363;SDS011;11349;53.412;-1.328;2023-10-09T08:04:31;9.13;;;5.45;;
22363;SDS011;11349;53.412;-1.328;2023-10-09T08:07:09;10.85;;;5.40;;
22363;SDS011;11349;53.412;-1.328;2023-10-09T08:09:44;21.33;;;6.68;;
22363;SDS011;11349;53.412;-1.328;2023-10-09T08:12:36;16.15;;;6.05;;
22363;SDS011;11349;53.412;-1.328;2023-10-09T08:15:02;13.80;;;6.22;;
22363;SDS011;11349;53.412;-1.328;2023-10-09T08:17:58;12.05;;;5.72;;
22363;SDS011;11349;53.412;-1.328;2023-10-09T08:20:39;15.23;;;5.72;;
22363;SDS011;11349;53.412;-1.328;2023-10-09T08:23:31;12.80;;;5.55;;
22363;SDS011;11349;53.412;-1.328;2023-10-09T08:26:13;13.30;;;6.30;;
22363;SDS011;11349;53.412;-1.328;2023-10-09T08:28:43;10.15;;;5.15;;
22363;SDS011;11349;53.412;-1.328;2023-10-09T08:31:13;15.52;;;5.82;;
22363;SDS011;11349;53.412;-1.328;2023-10-09T08:34:10;13.07;;;5.53;;
22363;SDS011;11349;53.412;-1.328;2023-10-09T08:36:48;12.10;;;5.40;;
22363;SDS011;11349;53.412;-1.328;2023-10-09T08:39:20;16.00;;;5.70;;
22363;SDS011;11349;53.412;-1.328;2023-10-09T08:41:55;14.20;;;5.97;;
22363;SDS011;11349;53.412;-1.328;2023-10-09T08:44:24;12.13;;;5.53;;
22363;SDS011;11349;53.412;-1.328;2023-10-09T08:46:55;14.30;;;5.88;;
22363;SDS011;11349;53.412;-1.328;2023-10-09T08:49:22;12.70;;;5.53;;
22363;SDS011;11349;53.412;-1.328;2023-10-09T08:51:50;13.70;;;5.63;;
22363;SDS011;11349;53.412;-1.328;2023-10-09T08:54:18;11.60;;;4.90;;
22363;SDS011;11349;53.412;-1.328;2023-10-09T08:56:46;16.83;;;5.93;;
22363;SDS011;11349;53.412;-1.328;2023-10-09T08:59:15;10.15;;;5.47;;
22363;SDS011;11349;53.412;-1.328;2023-10-09T09:01:48;12.00;;;4.80;;
22363;SDS011;11349;53.412;-1.328;2023-10-09T09:07:26;13.07;;;6.35;;
22363;SDS011;11349;53.412;-1.328;2023-10-09T09:09:56;12.65;;;5.43;;
22363;SDS011;11349;53.412;-1.328;2023-10-09T09:12:28;18.23;;;6.90;;
22363;SDS011;11349;53.412;-1.328;2023-10-09T09:15:02;17.20;;;6.53;;
22363;SDS011;11349;53.412;-1.328;2023-10-09T09:17:32;18.67;;;6.63;;
22363;SDS011;11349;53.412;-1.328;2023-10-09T09:19:58;14.48;;;6.53;;
22363;SDS011;11349;53.412;-1.328;2023-10-09T09:22:24;17.85;;;6.82;;
22363;SDS011;11349;53.412;-1.328;2023-10-09T09:24:58;16.88;;;6.55;;
22363;SDS011;11349;53.412;-1.328;2023-10-09T09:27:45;17.40;;;7.10;;
22363;SDS011;11349;53.412;-1.328;2023-10-09T09:30:25;15.35;;;7.10;;
22363;SDS011;11349;53.412;-1.328;2023-10-09T09:32:57;16.65;;;6.68;;
22363;SDS011;11349;53.412;-1.328;2023-10-09T09:35:55;12.63;;;5.47;;
22363;SDS011;11349;53.412;-1.328;2023-10-09T09:38:31;13.20;;;5.55;;
22363;SDS011;11349;53.412;-1.328;2023-10-09T09:41:17;11.88;;;5.35;;
22363;SDS011;11349;53.412;-1.328;2023-10-09T09:43:51;10.70;;;4.57;;
22363;SDS011;11349;53.412;-1.328;2023-10-09T09:46:22;12.73;;;4.82;;
22363;SDS011;11349;53.412;-1.328;2023-10-09T09:49:05;11.77;;;4.80;;
22363;SDS011;11349;53.412;-1.328;2023-10-09T09:51:41;12.73;;;3.85;;
22363;SDS011;11349;53.412;-1.328;2023-10-09T09:54:12;10.88;;;3.60;;
22363;SDS011;11349;53.412;-1.328;2023-10-09T09:56:40;9.18;;;4.15;;
22363;SDS011;11349;53.412;-1.328;2023-10-09T09:59:20;10.05;;;3.58;;
22363;SDS011;11349;53.412;-1.328;2023-10-09T10:01:53;9.60;;;4.45;;
22363;SDS011;11349;53.412;-1.328;2023-10-09T10:04:31;8.85;;;3.50;;
22363;SDS011;11349;53.412;-1.328;2023-10-09T10:07:03;6.57;;;3.40;;
22363;SDS011;11349;53.412;-1.328;2023-10-09T10:09:34;6.43;;;2.60;;
22363;SDS011;11349;53.412;-1.328;2023-10-09T10:12:11;7.50;;;3.38;;
22363;SDS011;11349;53.412;-1.328;2023-10-09T10:14:52;5.57;;;3.20;;
22363;SDS011;11349;53.412;-1.328;2023-10-09T10:17:22;7.70;;;3.63;;
22363;SDS011;11349;53.412;-1.328;2023-10-09T10:22:29;7.82;;;3.13;;
22363;SDS011;11349;53.412;-1.328;2023-10-09T10:24:58;8.30;;;3.55;;
22363;SDS011;11349;53.412;-1.328;2023-10-09T10:27:28;7.28;;;3.50;;
22363;SDS011;11349;53.412;-1.328;2023-10-09T10:32:55;6.97;;;3.10;;
22363;SDS011;11349;53.412;-1.328;2023-10-09T10:35:41;9.00;;;3.40;;
22363;SDS011;11349;53.412;-1.328;2023-10-09T10:41:15;12.90;;;3.25;;
22363;SDS011;11349;53.412;-1.328;2023-10-09T10:43:43;7.95;;;3.60;;
22363;SDS011;11349;53.412;-1.328;2023-10-09T10:46:13;7.70;;;3.70;;
22363;SDS011;11349;53.412;-1.328;2023-10-09T10:48:48;7.35;;;3.08;;
22363;SDS011;11349;53.412;-1.328;2023-10-09T10:51:24;6.60;;;2.83;;
22363;SDS011;11349;53.412;-1.328;2023-10-09T10:54:00;9.70;;;3.65;;
22363;SDS011;11349;53.412;-1.328;2023-10-09T10:56:47;8.40;;;3.55;;
22363;SDS011;11349;53.412;-1.328;2023-10-09T10:59:13;7.03;;;3.20;;
22363;SDS011;11349;53.412;-1.328;2023-10-09T11:01:47;7.32;;;2.70;;
22363;SDS011;11349;53.412;-1.328;2023-10-09T11:04:26;4.95;;;2.80;;
22363;SDS011;11349;53.412;-1.328;2023-10-09T11:06:56;7.45;;;3.05;;
22363;SDS011;11349;53.412;-1.328;2023-10-09T11:09:56;5.68;;;2.72;;
22363;SDS011;11349;53.412;-1.328;2023-10-09T11:15:14;8.43;;;3.10;;
22363;SDS011;11349;53.412;-1.328;2023-10-09T11:18:02;7.90;;;2.88;;
22363;SDS011;11349;53.412;-1.328;2023-10-09T11:20:58;7.97;;;3.20;;
22363;SDS011;11349;53.412;-1.328;2023-10-09T11:23:27;7.07;;;2.15;;
22363;SDS011;11349;53.412;-1.328;2023-10-09T11:25:59;8.00;;;3.13;;
22363;SDS011;11349;53.412;-1.328;2023-10-09T11:28:44;8.00;;;2.80;;
22363;SDS011;11349;53.412;-1.328;2023-10-09T11:31:22;4.97;;;2.92;;
22363;SDS011;11349;53.412;-1.328;2023-10-09T11:33:49;8.00;;;2.75;;
22363;SDS011;11349;53.412;-1.328;2023-10-09T11:36:19;6.15;;;2.80;;
22363;SDS011;11349;53.412;-1.328;2023-10-09T11:39:01;7.60;;;2.97;;
22363;SDS011;11349;53.412;-1.328;2023-10-09T11:41:47;6.15;;;2.80;;
22363;SDS011;11349;53.412;-1.328;2023-10-09T11:44:15;7.55;;;2.97;;
22363;SDS011;11349;53.412;-1.328;2023-10-09T11:46:58;7.97;;;3.50;;
22363;SDS011;11349;53.412;-1.328;2023-10-09T11:49:57;7.88;;;3.38;;
22363;SDS011;11349;53.412;-1.328;2023-10-09T11:52:26;10.02;;;3.20;;
22363;SDS011;11349;53.412;-1.328;2023-10-09T11:55:03;6.85;;;3.42;;
22363;SDS011;11349;53.412;-1.328;2023-10-09T11:57:31;6.47;;;3.35;;
22363;SDS011;11349;53.412;-1.328;2023-10-09T12:00:02;10.25;;;4.05;;
22363;SDS011;11349;53.412;-1.328;2023-10-09T12:03:01;6.43;;;3.65;;
22363;SDS011;11349;53.412;-1.328;2023-10-09T12:05:33;8.52;;;3.10;;
22363;SDS011;11349;53.412;-1.328;2023-10-09T12:07:59;10.93;;;4.50;;
22363;SDS011;11349;53.412;-1.328;2023-10-09T12:10:26;8.93;;;3.75;;
22363;SDS011;11349;53.412;-1.328;2023-10-09T12:12:53;8.30;;;4.07;;
22363;SDS011;11349;53.412;-1.328;2023-10-09T12:15:19;8.98;;;4.32;;
22363;SDS011;11349;53.412;-1.328;2023-10-09T12:17:46;10.15;;;4.55;;
22363;SDS011;11349;53.412;-1.328;2023-10-09T12:20:15;8.43;;;4.07;;
22363;SDS011;11349;53.412;-1.328;2023-10-09T12:23:00;9.18;;;4.18;;
22363;SDS011;11349;53.412;-1.328;2023-10-09T12:25:30;7.45;;;3.90;;
22363;SDS011;11349;53.412;-1.328;2023-10-09T12:27:57;7.10;;;4.18;;
22363;SDS011;11349;53.412;-1.328;2023-10-09T12:30:28;11.35;;;4.60;;
22363;SDS011;11349;53.412;-1.328;2023-10-09T12:32:54;9.02;;;4.25;;
22363;SDS011;11349;53.412;-1.328;2023-10-09T12:35:24;8.55;;;4.63;;
22363;SDS011;11349;53.412;-1.328;2023-10-09T12:37:53;8.60;;;4.45;;
22363;SDS011;11349;53.412;-1.328;2023-10-09T12:40:20;8.60;;;4.35;;
22363;SDS011;11349;53.412;-1.328;2023-10-09T12:42:52;7.68;;;4.10;;
22363;SDS011;11349;53.412;-1.328;2023-10-09T12:45:18;17.50;;;4.63;;
22363;SDS011;11349;53.412;-1.328;2023-10-09T12:47:51;8.25;;;4.00;;
22363;SDS011;11349;53.412;-1.328;2023-10-09T12:50:24;8.13;;;4.47;;
22363;SDS011;11349;53.412;-1.328;2023-10-09T12:52:55;6.97;;;4.07;;
22363;SDS011;11349;53.412;-1.328;2023-10-09T12:55:21;10.13;;;4.07;;
22363;SDS011;11349;53.412;-1.328;2023-10-09T12:57:56;8.85;;;4.57;;
22363;SDS011;11349;53.412;-1.328;2023-10-09T13:00:40;8.82;;;4.28;;
22363;SDS011;11349;53.412;-1.328;2023-10-09T13:03:10;6.82;;;4.10;;
22363;SDS011;11349;53.412;-1.328;2023-10-09T13:05:50;8.32;;;4.82;;
22363;SDS011;11349;53.412;-1.328;2023-10-09T13:08:21;8.18;;;3.85;;
22363;SDS011;11349;53.412;-1.328;2023-10-09T13:10:51;8.13;;;4.05;;
22363;SDS011;11349;53.412;-1.328;2023-10-09T13:13:27;9.82;;;4.95;;
22363;SDS011;11349;53.412;-1.328;2023-10-09T13:16:05;7.45;;;4.10;;
22363;SDS011;11349;53.412;-1.328;2023-10-09T13:18:36;10.52;;;4.20;;
22363;SDS011;11349;53.412;-1.328;2023-10-09T13:21:04;9.82;;;4.78;;
22363;SDS011;11349;53.412;-1.328;2023-10-09T13:23:30;7.80;;;4.72;;
22363;SDS011;11349;53.412;-1.328;2023-10-09T13:26:07;8.40;;;4.30;;
22363;SDS011;11349;53.412;-1.328;2023-10-09T13:28:52;7.47;;;3.88;;
22363;SDS011;11349;53.412;-1.328;2023-10-09T13:31:18;10.50;;;5.32;;
22363;SDS011;11349;53.412;-1.328;2023-10-09T13:33:46;8.75;;;4.30;;
22363;SDS011;11349;53.412;-1.328;2023-10-09T13:36:13;9.73;;;4.35;;
22363;SDS011;11349;53.412;-1.328;2023-10-09T13:38:55;7.50;;;4.53;;
22363;SDS011;11349;53.412;-1.328;2023-10-09T13:41:22;8.25;;;4.35;;
22363;SDS011;11349;53.412;-1.328;2023-10-09T13:43:54;8.43;;;4.20;;
22363;SDS011;11349;53.412;-1.328;2023-10-09T13:46:22;6.03;;;3.65;;
22363;SDS011;11349;53.412;-1.328;2023-10-09T13:48:49;8.57;;;4.55;;
22363;SDS011;11349;53.412;-1.328;2023-10-09T13:51:17;7.72;;;4.10;;
22363;SDS011;11349;53.412;-1.328;2023-10-09T13:53:44;10.50;;;4.80;;
22363;SDS011;11349;53.412;-1.328;2023-10-09T13:56:17;6.57;;;3.70;;
22363;SDS011;11349;53.412;-1.328;2023-10-09T13:58:46;7.35;;;4.38;;
22363;SDS011;11349;53.412;-1.328;2023-10-09T14:01:14;8.95;;;4.40;;
22363;SDS011;11349;53.412;-1.328;2023-10-09T14:03:56;10.95;;;4.60;;
22363;SDS011;11349;53.412;-1.328;2023-10-09T14:06:23;6.80;;;2.90;;
22363;SDS011;11349;53.412;-1.328;2023-10-09T14:09:04;6.80;;;2.95;;
22363;SDS011;11349;53.412;-1.328;2023-10-09T14:11:33;7.72;;;3.22;;
22363;SDS011;11349;53.412;-1.328;2023-10-09T14:14:05;5.90;;;2.78;;
22363;SDS011;11349;53.412;-1.328;2023-10-09T14:16:37;5.05;;;2.40;;
22363;SDS011;11349;53.412;-1.328;2023-10-09T14:19:08;5.15;;;2.55;;
22363;SDS011;11349;53.412;-1.328;2023-10-09T14:21:38;7.90;;;3.40;;
22363;SDS011;11349;53.412;-1.328;2023-10-09T14:24:05;7.05;;;3.38;;
22363;SDS011;11349;53.412;-1.328;2023-10-09T14:26:43;6.78;;;3.05;;
22363;SDS011;11349;53.412;-1.328;2023-10-09T14:29:13;5.75;;;2.65;;
22363;SDS011;11349;53.412;-1.328;2023-10-09T14:31:42;4.45;;;2.55;;
22363;SDS011;11349;53.412;-1.328;2023-10-09T14:34:08;5.80;;;2.50;;
22363;SDS011;11349;53.412;-1.328;2023-10-09T14:36:34;5.65;;;2.85;;
22363;SDS011;11349;53.412;-1.328;2023-10-09T14:39:01;6.57;;;2.90;;
22363;SDS011;11349;53.412;-1.328;2023-10-09T14:41:29;6.70;;;2.90;;
22363;SDS011;11349;53.412;-1.328;2023-10-09T14:43:58;6.97;;;3.10;;
22363;SDS011;11349;53.412;-1.328;2023-10-09T14:46:24;7.65;;;3.22;;
22363;SDS011;11349;53.412;-1.328;2023-10-09T14:48:54;8.15;;;3.30;;
22363;SDS011;11349;53.412;-1.328;2023-10-09T14:51:23;5.80;;;2.85;;
22363;SDS011;11349;53.412;-1.328;2023-10-09T14:53:53;6.72;;;3.17;;
22363;SDS011;11349;53.412;-1.328;2023-10-09T14:56:29;8.15;;;3.25;;
22363;SDS011;11349;53.412;-1.328;2023-10-09T14:58:58;5.75;;;3.33;;
22363;SDS011;11349;53.412;-1.328;2023-10-09T15:01:28;6.93;;;2.95;;
22363;SDS011;11349;53.412;-1.328;2023-10-09T15:03:56;7.05;;;3.05;;
22363;SDS011;11349;53.412;-1.328;2023-10-09T15:06:25;8.73;;;3.33;;
22363;SDS011;11349;53.412;-1.328;2023-10-09T15:08:55;8.80;;;3.80;;
22363;SDS011;11349;53.412;-1.328;2023-10-09T15:11:22;8.98;;;2.88;;
22363;SDS011;11349;53.412;-1.328;2023-10-09T15:13:50;6.38;;;3.75;;
22363;SDS011;11349;53.412;-1.328;2023-10-09T15:16:24;5.78;;;3.00;;
22363;SDS011;11349;53.412;-1.328;2023-10-09T15:18:55;6.80;;;3.17;;
22363;SDS011;11349;53.412;-1.328;2023-10-09T15:21:27;5.38;;;2.63;;
22363;SDS011;11349;53.412;-1.328;2023-10-09T15:23:57;4.93;;;3.20;;
22363;SDS011;11349;53.412;-1.328;2023-10-09T15:26:23;7.78;;;3.00;;
22363;SDS011;11349;53.412;-1.328;2023-10-09T15:28:52;4.97;;;2.50;;
22363;SDS011;11349;53.412;-1.328;2023-10-09T15:31:18;7.47;;;2.88;;
22363;SDS011;11349;53.412;-1.328;2023-10-09T15:33:47;8.15;;;2.95;;
22363;SDS011;11349;53.412;-1.328;2023-10-09T15:36:16;6.05;;;2.95;;